Time;durP1;ratioP1;P1;durP2;ratioP2;P2;SDS_P1;SDS_P2;PMS_P1;PMS_P2;Temp;Humidity;BMP_temperature;BMP_pressure;BME280_temperature;BME280_humidity;BME280_pressure;Samples;Min_cycle;Max_cycle;Signal;HPM_P1;HPM_P2
2023/06/06 00:01:55;;;;;;;12.50;5.90;;;;;;;;;;5029874;28;20064;-64
2023/06/06 00:04:27;;;;;;;12.40;5.25;;;;;;;;;;5030080;28;20513;-63
2023/06/06 00:06:57;;;;;;;12.52;5.30;;;;;;;;;;5013258;28;20162;-65
2023/06/06 00:09:28;;;;;;;17.92;6.13;;;;;;;;;;5029562;28;20513;-63
2023/06/06 00:11:58;;;;;;;11.38;5.25;;;;;;;;;;5013167;28;20544;-63
2023/06/06 00:14:31;;;;;;;20.65;5.43;;;;;;;;;;5030086;28;20053;-63
2023/06/06 00:17:01;;;;;;;13.45;6.13;;;;;;;;;;5013264;28;20053;-64
2023/06/06 00:19:32;;;;;;;18.65;5.93;;;;;;;;;;5029593;28;20053;-64
2023/06/06 00:22:03;;;;;;;13.00;5.32;;;;;;;;;;5029787;28;20049;-63
2023/06/06 00:24:33;;;;;;;12.85;5.72;;;;;;;;;;5029661;28;20057;-64
2023/06/06 00:27:03;;;;;;;15.75;5.93;;;;;;;;;;5029435;28;20429;-63
2023/06/06 00:29:34;;;;;;;12.32;6.72;;;;;;;;;;4990116;28;20055;-63
2023/06/06 00:32:04;;;;;;;12.52;5.55;;;;;;;;;;4957945;28;20053;-63
2023/06/06 00:34:35;;;;;;;14.32;5.90;;;;;;;;;;4990259;28;20067;-63
2023/06/06 00:37:05;;;;;;;12.02;5.88;;;;;;;;;;4989823;28;20510;-63
2023/06/06 00:39:36;;;;;;;18.95;6.80;;;;;;;;;;5009997;28;20409;-64
2023/06/06 00:42:06;;;;;;;14.45;6.07;;;;;;;;;;5029461;28;20049;-63
2023/06/06 00:44:37;;;;;;;15.88;6.80;;;;;;;;;;5029309;28;20064;-63
2023/06/06 00:47:08;;;;;;;19.73;7.18;;;;;;;;;;5029385;28;20460;-63
2023/06/06 00:49:40;;;;;;;16.20;6.78;;;;;;;;;;4996492;28;20057;-63
2023/06/06 00:52:10;;;;;;;17.58;6.82;;;;;;;;;;5012291;28;20056;-63
2023/06/06 00:54:42;;;;;;;20.30;6.72;;;;;;;;;;5013090;28;20184;-63
2023/06/06 00:57:13;;;;;;;14.98;7.20;;;;;;;;;;4995797;28;20067;-65
2023/06/06 00:59:43;;;;;;;17.27;6.88;;;;;;;;;;5029250;28;20080;-63
2023/06/06 01:02:17;;;;;;;13.90;5.88;;;;;;;;;;5012506;28;20084;-63
2023/06/06 01:04:48;;;;;;;12.52;6.13;;;;;;;;;;5029110;28;20045;-63
2023/06/06 01:07:19;;;;;;;14.50;6.28;;;;;;;;;;4986396;28;20046;-64
2023/06/06 01:09:49;;;;;;;11.10;5.95;;;;;;;;;;5009182;28;20067;-63
2023/06/06 01:12:47;;;;;;;17.40;5.95;;;;;;;;;;5009302;28;20438;-63
2023/06/06 01:15:45;;;;;;;16.60;6.95;;;;;;;;;;4960746;28;20461;-64
2023/06/06 01:18:17;;;;;;;19.45;6.75;;;;;;;;;;5009436;28;20062;-63
2023/06/06 01:20:49;;;;;;;17.38;8.25;;;;;;;;;;4992118;28;20430;-63
2023/06/06 01:23:20;;;;;;;19.35;7.78;;;;;;;;;;5009123;28;20187;-65
2023/06/06 01:25:50;;;;;;;16.00;7.65;;;;;;;;;;4976719;28;20050;-63
2023/06/06 01:28:21;;;;;;;14.38;6.63;;;;;;;;;;5008954;28;20074;-64
2023/06/06 01:30:51;;;;;;;12.43;6.22;;;;;;;;;;5008621;28;20049;-64
2023/06/06 01:33:21;;;;;;;16.35;7.25;;;;;;;;;;5009170;28;20163;-63
2023/06/06 01:36:19;;;;;;;15.18;7.00;;;;;;;;;;4960160;28;20057;-63
2023/06/06 01:39:02;;;;;;;13.75;6.85;;;;;;;;;;4959909;28;20561;-63
2023/06/06 01:41:36;;;;;;;19.58;8.25;;;;;;;;;;4992186;28;20433;-64
2023/06/06 01:44:09;;;;;;;18.65;8.40;;;;;;;;;;4988864;28;20077;-64
2023/06/06 01:46:41;;;;;;;19.35;8.25;;;;;;;;;;4969658;28;20054;-63
2023/06/06 01:49:13;;;;;;;17.65;8.32;;;;;;;;;;4969592;28;20059;-63
2023/06/06 01:51:43;;;;;;;18.58;7.13;;;;;;;;;;4918593;29;20195;-64
2023/06/06 01:54:14;;;;;;;16.52;8.02;;;;;;;;;;4931139;29;20052;-63
2023/06/06 01:56:44;;;;;;;16.10;8.00;;;;;;;;;;4931590;29;20059;-64
2023/06/06 01:59:14;;;;;;;21.10;9.02;;;;;;;;;;4914863;29;20530;-64
2023/06/06 02:01:45;;;;;;;16.13;8.10;;;;;;;;;;4912041;29;20052;-63
2023/06/06 02:04:14;;;;;;;17.98;7.78;;;;;;;;;;4912375;29;20432;-63
2023/06/06 02:06:46;;;;;;;15.40;7.22;;;;;;;;;;4893007;29;20057;-63
2023/06/06 02:09:18;;;;;;;15.70;7.38;;;;;;;;;;4893025;29;20080;-63
2023/06/06 02:11:48;;;;;;;16.58;8.15;;;;;;;;;;4880974;29;20087;-63
2023/06/06 02:14:18;;;;;;;16.92;7.47;;;;;;;;;;4912174;29;20203;-64
2023/06/06 02:16:48;;;;;;;19.42;9.27;;;;;;;;;;4915339;29;20499;-63
2023/06/06 02:19:19;;;;;;;20.23;9.30;;;;;;;;;;4934616;28;20097;-64
2023/06/06 02:21:51;;;;;;;18.58;8.60;;;;;;;;;;4918213;29;20052;-63
2023/06/06 02:24:24;;;;;;;23.95;7.70;;;;;;;;;;4930897;29;20099;-65
2023/06/06 02:26:55;;;;;;;19.13;7.80;;;;;;;;;;4900450;29;20472;-64
2023/06/06 02:29:25;;;;;;;20.00;8.27;;;;;;;;;;4923098;29;20059;-64
2023/06/06 02:31:56;;;;;;;15.98;7.90;;;;;;;;;;4954437;28;20388;-64
2023/06/06 02:34:27;;;;;;;17.52;7.53;;;;;;;;;;4976306;28;20050;-64
2023/06/06 02:36:59;;;;;;;15.98;7.72;;;;;;;;;;4960737;28;20126;-64
2023/06/06 02:39:30;;;;;;;17.92;7.85;;;;;;;;;;4981197;28;20057;-64
2023/06/06 02:42:00;;;;;;;16.20;7.65;;;;;;;;;;5011702;28;20042;-64
2023/06/06 02:44:31;;;;;;;20.52;7.97;;;;;;;;;;4984331;28;20083;-64
2023/06/06 02:47:01;;;;;;;17.38;7.95;;;;;;;;;;5011571;28;20049;-64
2023/06/06 02:49:31;;;;;;;14.98;7.88;;;;;;;;;;4995261;28;20058;-64
2023/06/06 02:52:01;;;;;;;16.88;7.68;;;;;;;;;;5011540;28;20065;-63
2023/06/06 02:54:31;;;;;;;17.08;7.97;;;;;;;;;;5011751;28;20122;-64
2023/06/06 02:57:02;;;;;;;15.70;7.82;;;;;;;;;;4972391;28;20658;-64
2023/06/06 02:59:32;;;;;;;15.90;7.60;;;;;;;;;;4933344;29;20054;-64
2023/06/06 03:02:03;;;;;;;14.35;7.65;;;;;;;;;;4933900;29;20075;-64
2023/06/06 03:04:33;;;;;;;15.98;7.97;;;;;;;;;;4902215;29;20059;-64
2023/06/06 03:07:03;;;;;;;16.50;7.50;;;;;;;;;;4933875;29;20055;-64
2023/06/06 03:09:34;;;;;;;20.40;7.68;;;;;;;;;;4934080;29;20063;-64
2023/06/06 03:12:04;;;;;;;18.08;7.32;;;;;;;;;;4914518;29;20060;-64
2023/06/06 03:14:34;;;;;;;16.40;7.47;;;;;;;;;;4914644;29;20055;-64
2023/06/06 03:17:20;;;;;;;16.33;7.20;;;;;;;;;;4901293;29;20059;-63
2023/06/06 03:19:50;;;;;;;15.00;7.35;;;;;;;;;;4853625;29;20053;-64
2023/06/06 03:22:22;;;;;;;15.35;7.72;;;;;;;;;;4876909;29;20056;-63
2023/06/06 03:24:52;;;;;;;21.13;7.60;;;;;;;;;;4906183;29;20060;-64
2023/06/06 03:27:23;;;;;;;17.00;8.38;;;;;;;;;;4914659;29;20465;-63
2023/06/06 03:29:53;;;;;;;17.45;7.43;;;;;;;;;;4903118;29;20056;-65
2023/06/06 03:32:28;;;;;;;16.33;8.18;;;;;;;;;;4928981;29;20408;-64
2023/06/06 03:35:01;;;;;;;15.65;7.30;;;;;;;;;;4890374;29;20056;-63
2023/06/06 03:37:31;;;;;;;18.27;7.20;;;;;;;;;;4895215;29;20056;-63
2023/06/06 03:40:05;;;;;;;14.93;7.53;;;;;;;;;;4897562;29;20074;-63
2023/06/06 03:42:36;;;;;;;16.00;7.95;;;;;;;;;;4894962;29;20071;-64
2023/06/06 03:45:07;;;;;;;16.85;7.25;;;;;;;;;;4897272;29;20048;-64
2023/06/06 03:47:37;;;;;;;21.30;7.53;;;;;;;;;;4913775;29;20543;-63
2023/06/06 03:50:08;;;;;;;17.27;8.25;;;;;;;;;;4905050;29;20063;-63
2023/06/06 03:52:40;;;;;;;16.38;7.35;;;;;;;;;;4912821;29;20067;-65
2023/06/06 03:55:10;;;;;;;15.95;7.75;;;;;;;;;;4913861;29;20701;-63
2023/06/06 03:57:42;;;;;;;17.48;8.10;;;;;;;;;;4913632;29;20527;-63
2023/06/06 04:00:16;;;;;;;16.55;8.38;;;;;;;;;;4902968;29;20052;-64
2023/06/06 04:02:48;;;;;;;16.83;8.55;;;;;;;;;;4887218;29;20931;-64
2023/06/06 04:05:20;;;;;;;14.77;7.85;;;;;;;;;;4913463;29;20048;-64
2023/06/06 04:07:50;;;;;;;14.75;8.02;;;;;;;;;;4883161;29;20060;-63
2023/06/06 04:10:21;;;;;;;17.05;8.63;;;;;;;;;;4873021;29;20588;-63
2023/06/06 04:12:52;;;;;;;16.80;8.15;;;;;;;;;;4847692;29;20423;-63
2023/06/06 04:15:22;;;;;;;16.17;7.68;;;;;;;;;;4864192;29;20057;-63
2023/06/06 04:17:53;;;;;;;15.50;8.50;;;;;;;;;;4878189;29;20063;-64
2023/06/06 04:20:23;;;;;;;16.88;8.38;;;;;;;;;;4894613;29;20048;-64
2023/06/06 04:22:56;;;;;;;19.90;8.35;;;;;;;;;;4905159;29;20067;-64
2023/06/06 04:25:26;;;;;;;16.92;7.80;;;;;;;;;;4894164;29;20061;-65
2023/06/06 04:28:00;;;;;;;18.13;7.88;;;;;;;;;;4894463;29;20056;-63
2023/06/06 04:30:32;;;;;;;16.48;7.95;;;;;;;;;;4863654;29;20068;-65
2023/06/06 04:33:02;;;;;;;14.85;7.32;;;;;;;;;;4857145;29;20060;-63
2023/06/06 04:35:35;;;;;;;14.23;7.75;;;;;;;;;;4857124;29;20458;-63
2023/06/06 04:38:07;;;;;;;14.68;6.78;;;;;;;;;;4872285;29;20431;-63
2023/06/06 04:40:40;;;;;;;14.25;7.22;;;;;;;;;;4849230;29;20084;-64
2023/06/06 04:43:30;;;;;;;12.98;6.68;;;;;;;;;;4844248;29;20062;-63
2023/06/06 04:46:01;;;;;;;14.40;6.78;;;;;;;;;;4838533;29;20070;-64
2023/06/06 04:48:30;;;;;;;14.40;6.80;;;;;;;;;;4864906;29;20061;-63
2023/06/06 04:51:01;;;;;;;13.35;7.13;;;;;;;;;;4856668;29;20068;-63
2023/06/06 04:53:31;;;;;;;17.83;7.50;;;;;;;;;;4907100;29;20404;-64
2023/06/06 04:56:03;;;;;;;16.60;7.07;;;;;;;;;;4896701;29;20059;-63
2023/06/06 04:58:34;;;;;;;17.20;7.45;;;;;;;;;;4937580;28;20066;-63
2023/06/06 05:01:04;;;;;;;14.02;7.20;;;;;;;;;;4954064;28;20527;-63
2023/06/06 05:03:35;;;;;;;13.25;7.32;;;;;;;;;;4940693;28;20066;-64
2023/06/06 05:06:06;;;;;;;15.05;7.15;;;;;;;;;;4937524;29;20062;-63
2023/06/06 05:08:46;;;;;;;15.25;7.22;;;;;;;;;;4931753;29;20421;-63
2023/06/06 05:11:18;;;;;;;15.55;6.90;;;;;;;;;;4959727;28;20055;-63
2023/06/06 05:13:49;;;;;;;15.52;7.35;;;;;;;;;;4970294;28;20050;-63
2023/06/06 05:16:19;;;;;;;16.05;7.38;;;;;;;;;;4970394;28;20415;-63
2023/06/06 05:18:49;;;;;;;17.40;7.53;;;;;;;;;;4984496;28;20410;-63
2023/06/06 05:21:21;;;;;;;14.88;7.45;;;;;;;;;;4989688;28;20073;-64
2023/06/06 05:23:53;;;;;;;13.07;6.90;;;;;;;;;;4989563;28;20050;-64
2023/06/06 05:26:23;;;;;;;12.48;7.25;;;;;;;;;;4989913;28;20054;-63
2023/06/06 05:28:54;;;;;;;12.75;7.13;;;;;;;;;;4997358;28;20132;-64
2023/06/06 05:31:25;;;;;;;15.32;7.65;;;;;;;;;;5012641;28;20532;-63
2023/06/06 05:33:58;;;;;;;14.98;7.28;;;;;;;;;;5029148;28;20429;-63
2023/06/06 05:36:28;;;;;;;17.15;7.07;;;;;;;;;;5028886;28;20061;-63
2023/06/06 05:39:00;;;;;;;17.13;7.80;;;;;;;;;;4992310;28;20065;-64
2023/06/06 05:41:30;;;;;;;16.42;7.47;;;;;;;;;;5009025;28;20061;-64
2023/06/06 05:44:00;;;;;;;17.73;7.82;;;;;;;;;;4976549;28;20064;-64
2023/06/06 05:46:30;;;;;;;15.05;6.95;;;;;;;;;;5008921;28;20046;-63
2023/06/06 05:49:00;;;;;;;18.98;8.05;;;;;;;;;;5008991;28;20050;-64
2023/06/06 05:51:31;;;;;;;16.02;7.72;;;;;;;;;;5008686;28;20069;-63
2023/06/06 05:54:01;;;;;;;14.32;6.60;;;;;;;;;;5009151;28;20069;-64
2023/06/06 05:56:45;;;;;;;22.75;9.02;;;;;;;;;;5008869;28;20544;-63
2023/06/06 05:59:15;;;;;;;15.75;8.15;;;;;;;;;;5009026;28;20501;-64
2023/06/06 06:01:47;;;;;;;16.10;7.95;;;;;;;;;;5008865;28;20066;-64
2023/06/06 06:04:18;;;;;;;;;;;;;;;;;;4976930;28;20060;-64
2023/06/06 06:06:49;;;;;;;17.38;7.50;;;;;;;;;;5009021;28;19921;-64
2023/06/06 06:09:21;;;;;;;16.75;7.57;;;;;;;;;;4992092;28;20058;-63
2023/06/06 06:11:51;;;;;;;16.27;7.95;;;;;;;;;;5015647;28;20060;-64
2023/06/06 06:14:22;;;;;;;17.00;8.40;;;;;;;;;;5032315;28;20508;-63
2023/06/06 06:16:52;;;;;;;14.93;7.95;;;;;;;;;;5057641;28;20071;-63
2023/06/06 06:19:22;;;;;;;17.73;8.10;;;;;;;;;;5074847;28;20492;-64
2023/06/06 06:21:52;;;;;;;17.08;7.50;;;;;;;;;;5039941;28;20052;-63
2023/06/06 06:24:22;;;;;;;16.15;7.55;;;;;;;;;;5074290;28;20040;-63
2023/06/06 06:26:52;;;;;;;15.10;7.28;;;;;;;;;;5038923;28;20056;-64
2023/06/06 06:29:23;;;;;;;15.52;7.82;;;;;;;;;;5040120;28;20056;-63
2023/06/06 06:31:53;;;;;;;18.02;8.50;;;;;;;;;;5038891;28;20496;-63
2023/06/06 06:34:23;;;;;;;19.02;8.90;;;;;;;;;;5021977;28;20049;-63
2023/06/06 06:36:53;;;;;;;18.70;8.65;;;;;;;;;;5074079;28;20468;-63
2023/06/06 06:39:23;;;;;;;15.80;7.75;;;;;;;;;;5073913;28;20554;-63
2023/06/06 06:41:53;;;;;;;17.33;8.27;;;;;;;;;;5073853;28;20060;-63
2023/06/06 06:44:34;;;;;;;16.08;8.07;;;;;;;;;;5051268;28;20079;-63
2023/06/06 06:47:04;;;;;;;20.05;8.48;;;;;;;;;;5019101;28;20080;-64
2023/06/06 06:49:34;;;;;;;17.50;7.90;;;;;;;;;;5002405;28;20060;-63
2023/06/06 06:52:07;;;;;;;17.73;9.00;;;;;;;;;;5051309;28;20444;-64
2023/06/06 06:54:54;;;;;;;17.85;8.45;;;;;;;;;;5051595;28;20052;-63
2023/06/06 06:57:29;;;;;;;18.17;8.38;;;;;;;;;;5034225;28;20509;-63
2023/06/06 07:00:00;;;;;;;20.60;9.48;;;;;;;;;;4998470;28;20057;-63
2023/06/06 07:02:31;;;;;;;18.85;8.98;;;;;;;;;;5031432;28;20053;-63
2023/06/06 07:05:05;;;;;;;19.05;8.52;;;;;;;;;;5011255;28;20556;-64
2023/06/06 07:07:46;;;;;;;18.80;8.57;;;;;;;;;;4995178;28;20050;-64
2023/06/06 07:10:18;;;;;;;18.10;8.52;;;;;;;;;;5011276;28;20054;-63
2023/06/06 07:12:50;;;;;;;22.70;9.13;;;;;;;;;;5011288;28;20073;-63
2023/06/06 07:15:26;;;;;;;16.83;8.25;;;;;;;;;;5011032;28;20053;-63
2023/06/06 07:17:56;;;;;;;14.82;8.02;;;;;;;;;;4978684;28;20053;-63
2023/06/06 07:20:27;;;;;;;17.27;8.32;;;;;;;;;;4978663;28;20062;-63
2023/06/06 07:22:57;;;;;;;17.95;7.75;;;;;;;;;;5027279;28;20069;-63
2023/06/06 07:25:28;;;;;;;19.80;8.95;;;;;;;;;;4997744;28;20046;-63
2023/06/06 07:27:59;;;;;;;22.27;9.70;;;;;;;;;;5030788;28;20052;-63
2023/06/06 07:30:29;;;;;;;28.52;10.18;;;;;;;;;;5030676;28;20129;-63
2023/06/06 07:32:59;;;;;;;27.58;10.73;;;;;;;;;;5030839;28;20057;-63
2023/06/06 07:35:32;;;;;;;28.75;10.05;;;;;;;;;;4974663;28;20478;-63
2023/06/06 07:38:03;;;;;;;29.58;11.00;;;;;;;;;;4991269;28;20058;-63
2023/06/06 07:40:33;;;;;;;19.88;8.88;;;;;;;;;;4991221;28;20050;-63
2023/06/06 07:43:03;;;;;;;17.17;7.82;;;;;;;;;;5007478;28;20050;-63
2023/06/06 07:45:33;;;;;;;17.50;9.20;;;;;;;;;;5010303;28;20045;-63
2023/06/06 07:48:03;;;;;;;14.63;7.88;;;;;;;;;;5010507;28;20050;-63
2023/06/06 07:50:35;;;;;;;15.43;7.68;;;;;;;;;;5010608;28;20165;-63
2023/06/06 07:53:05;;;;;;;17.15;8.05;;;;;;;;;;5030353;28;20049;-63
2023/06/06 07:55:36;;;;;;;17.60;7.43;;;;;;;;;;5033303;28;20053;-63
2023/06/06 07:58:11;;;;;;;18.30;8.88;;;;;;;;;;5050159;28;20157;-63
2023/06/06 08:00:41;;;;;;;18.95;8.05;;;;;;;;;;5049902;28;20056;-64
2023/06/06 08:03:14;;;;;;;20.10;9.02;;;;;;;;;;5049735;28;20045;-63
2023/06/06 08:05:45;;;;;;;20.95;10.10;;;;;;;;;;5017295;28;20045;-63
2023/06/06 08:08:15;;;;;;;20.95;9.57;;;;;;;;;;5033072;28;20052;-63
2023/06/06 08:10:45;;;;;;;20.55;9.25;;;;;;;;;;5016772;28;20045;-63
2023/06/06 08:13:15;;;;;;;19.00;8.60;;;;;;;;;;4998412;28;20549;-63
2023/06/06 08:15:46;;;;;;;16.88;8.13;;;;;;;;;;5013450;28;20501;-63
2023/06/06 08:18:17;;;;;;;18.67;8.13;;;;;;;;;;4981823;28;20092;-63
2023/06/06 08:20:47;;;;;;;17.17;8.75;;;;;;;;;;5030157;28;20062;-63
2023/06/06 08:23:18;;;;;;;18.17;8.52;;;;;;;;;;5018947;28;20053;-63
2023/06/06 08:25:48;;;;;;;16.10;8.07;;;;;;;;;;5010097;28;20053;-63
2023/06/06 08:28:18;;;;;;;19.25;8.70;;;;;;;;;;5009631;28;20046;-63
2023/06/06 08:30:49;;;;;;;24.70;10.63;;;;;;;;;;5009399;28;20061;-63
2023/06/06 08:33:21;;;;;;;29.23;11.43;;;;;;;;;;4994268;28;20050;-63
2023/06/06 08:35:51;;;;;;;22.35;10.40;;;;;;;;;;4990101;28;20057;-64
2023/06/06 08:38:24;;;;;;;22.27;10.13;;;;;;;;;;4989827;28;20058;-61
2023/06/06 08:40:58;;;;;;;22.98;9.95;;;;;;;;;;5010747;28;20061;-63
2023/06/06 08:43:29;;;;;;;22.25;9.35;;;;;;;;;;4996604;28;20531;-63
2023/06/06 08:45:59;;;;;;;22.80;8.90;;;;;;;;;;5029431;28;20445;-63
2023/06/06 08:48:32;;;;;;;21.50;9.15;;;;;;;;;;5012688;28;20064;-63
2023/06/06 08:51:03;;;;;;;15.00;7.63;;;;;;;;;;5029498;28;20457;-63
2023/06/06 08:53:34;;;;;;;16.33;7.80;;;;;;;;;;5029332;28;20057;-63
2023/06/06 08:56:07;;;;;;;16.35;7.80;;;;;;;;;;5029627;28;20041;-63
2023/06/06 08:58:39;;;;;;;21.73;8.68;;;;;;;;;;4964948;28;20049;-63
2023/06/06 09:01:09;;;;;;;21.65;9.63;;;;;;;;;;5012471;28;20468;-64
2023/06/06 09:03:43;;;;;;;20.13;9.05;;;;;;;;;;4996416;28;20568;-63
2023/06/06 09:06:16;;;;;;;21.65;9.15;;;;;;;;;;5029295;28;20452;-63
2023/06/06 09:08:49;;;;;;;22.98;8.95;;;;;;;;;;5029393;28;20448;-63
2023/06/06 09:11:19;;;;;;;;;;;;;;;;;;4996886;28;20061;-63
2023/06/06 09:13:48;;;;;;;19.13;7.80;;;;;;;;;;5055995;28;20406;-63
2023/06/06 09:16:19;;;;;;;19.90;7.68;;;;;;;;;;5036947;28;20057;-63
2023/06/06 09:18:51;;;;;;;17.52;7.65;;;;;;;;;;5036976;28;20051;-63
2023/06/06 09:21:21;;;;;;;17.88;7.80;;;;;;;;;;5070375;28;20412;-63
2023/06/06 09:23:54;;;;;;;15.48;8.13;;;;;;;;;;5054118;28;20059;-63
2023/06/06 09:26:25;;;;;;;20.90;8.32;;;;;;;;;;5036076;28;20061;-63
2023/06/06 09:28:56;;;;;;;19.70;8.95;;;;;;;;;;5071383;28;20396;-63
2023/06/06 09:31:37;;;;;;;17.50;7.70;;;;;;;;;;5036954;28;20060;-64
2023/06/06 09:34:09;;;;;;;17.10;8.85;;;;;;;;;;5039494;28;20060;-63
2023/06/06 09:36:44;;;;;;;18.95;8.43;;;;;;;;;;5071196;28;20052;-63
2023/06/06 09:39:16;;;;;;;16.95;7.80;;;;;;;;;;5068986;28;20523;-63
2023/06/06 09:41:48;;;;;;;16.00;7.13;;;;;;;;;;5071293;28;20071;-64
2023/06/06 09:44:19;;;;;;;21.30;7.95;;;;;;;;;;5072701;28;20056;-63
2023/06/06 09:46:50;;;;;;;17.25;7.35;;;;;;;;;;5023646;28;20048;-64
2023/06/06 09:49:21;;;;;;;17.92;7.90;;;;;;;;;;5056657;28;20056;-63
2023/06/06 09:51:55;;;;;;;16.13;7.90;;;;;;;;;;5075077;28;20370;-63
2023/06/06 09:54:25;;;;;;;18.92;7.75;;;;;;;;;;5072726;28;20048;-63
2023/06/06 09:56:56;;;;;;;15.15;7.88;;;;;;;;;;5075281;28;20045;-64
2023/06/06 09:59:29;;;;;;;18.48;7.28;;;;;;;;;;5052218;28;20055;-63
2023/06/06 10:02:06;;;;;;;23.10;8.43;;;;;;;;;;5035964;28;20057;-63
2023/06/06 10:04:36;;;;;;;17.15;7.88;;;;;;;;;;4998940;28;20578;-64
2023/06/06 10:07:09;;;;;;;18.67;7.80;;;;;;;;;;5015975;28;20536;-63
2023/06/06 10:09:40;;;;;;;15.30;7.32;;;;;;;;;;4999473;28;20058;-63
2023/06/06 10:12:12;;;;;;;15.73;7.45;;;;;;;;;;4951616;28;20057;-64
2023/06/06 10:14:43;;;;;;;20.13;8.90;;;;;;;;;;5015674;28;20061;-64
2023/06/06 10:17:14;;;;;;;16.08;7.70;;;;;;;;;;5032246;28;20093;-63
2023/06/06 10:19:45;;;;;;;15.80;7.57;;;;;;;;;;5032023;28;20046;-63
2023/06/06 10:22:15;;;;;;;18.45;8.45;;;;;;;;;;5031923;28;20413;-62
2023/06/06 10:24:47;;;;;;;20.15;7.90;;;;;;;;;;5015775;28;20053;-64
2023/06/06 10:27:22;;;;;;;16.35;8.02;;;;;;;;;;5015633;28;20061;-62
2023/06/06 10:30:02;;;;;;;15.13;8.40;;;;;;;;;;5015154;28;20057;-63
2023/06/06 10:32:59;;;;;;;14.88;7.47;;;;;;;;;;5031741;28;20042;-63
2023/06/06 10:35:32;;;;;;;13.68;6.55;;;;;;;;;;4998667;28;20060;-63
2023/06/06 10:38:09;;;;;;;15.18;7.40;;;;;;;;;;5016050;28;20393;-63
2023/06/06 10:40:55;;;;;;;17.02;6.75;;;;;;;;;;5017781;28;20045;-62
2023/06/06 10:43:35;;;;;;;15.18;6.88;;;;;;;;;;5004915;28;20059;-62
2023/06/06 10:46:05;;;;;;;16.02;7.55;;;;;;;;;;5053844;28;20057;-62
2023/06/06 10:48:43;;;;;;;16.05;7.82;;;;;;;;;;5021163;28;20084;-63
2023/06/06 10:51:35;;;;;;;17.73;7.97;;;;;;;;;;5004884;28;20052;-63
2023/06/06 10:54:22;;;;;;;13.57;6.53;;;;;;;;;;5037315;28;20063;-62
2023/06/06 10:56:55;;;;;;;16.95;6.45;;;;;;;;;;5072642;28;20373;-63
2023/06/06 10:59:31;;;;;;;16.45;8.15;;;;;;;;;;5072573;28;20048;-62
2023/06/06 11:02:14;;;;;;;15.25;6.90;;;;;;;;;;5053957;28;20053;-63
2023/06/06 11:04:44;;;;;;;16.42;7.15;;;;;;;;;;5072513;28;20060;-63
2023/06/06 11:07:17;;;;;;;17.30;7.32;;;;;;;;;;5020438;28;20049;-62
2023/06/06 11:09:48;;;;;;;15.18;7.57;;;;;;;;;;5053354;28;20048;-63
2023/06/06 11:12:19;;;;;;;18.63;8.00;;;;;;;;;;5053862;28;20116;-64
2023/06/06 11:15:03;;;;;;;19.05;8.80;;;;;;;;;;5072058;28;20041;-64
2023/06/06 11:17:46;;;;;;;21.00;9.45;;;;;;;;;;5036797;28;20053;-63
2023/06/06 11:20:23;;;;;;;25.42;9.57;;;;;;;;;;5072065;28;20044;-63
2023/06/06 11:23:05;;;;;;;25.75;10.32;;;;;;;;;;5020481;28;20057;-63
2023/06/06 11:25:36;;;;;;;25.13;11.50;;;;;;;;;;5020200;28;20057;-63
2023/06/06 11:28:08;;;;;;;24.67;11.23;;;;;;;;;;5053413;28;20063;-64
2023/06/06 11:30:39;;;;;;;25.35;10.88;;;;;;;;;;5072007;28;20483;-64
2023/06/06 11:33:11;;;;;;;21.15;10.07;;;;;;;;;;5053220;28;20048;-63
2023/06/06 11:35:42;;;;;;;30.92;13.30;;;;;;;;;;5020149;28;20408;-63
2023/06/06 11:38:12;;;;;;;25.90;12.13;;;;;;;;;;5071724;28;20033;-64
2023/06/06 11:40:44;;;;;;;32.90;12.90;;;;;;;;;;4960191;28;2680992;-63
2023/06/06 11:43:14;;;;;;;27.15;12.43;;;;;;;;;;5072613;28;20770;-63
2023/06/06 11:45:45;;;;;;;26.33;12.63;;;;;;;;;;5072655;28;20037;-64
2023/06/06 11:48:25;;;;;;;23.98;12.32;;;;;;;;;;5072384;28;20504;-64
2023/06/06 11:50:56;;;;;;;25.85;12.85;;;;;;;;;;5036620;28;20053;-64
2023/06/06 11:53:30;;;;;;;30.90;12.95;;;;;;;;;;5021206;28;20060;-64
2023/06/06 11:56:01;;;;;;;32.65;13.30;;;;;;;;;;5072329;28;20052;-63
2023/06/06 11:58:34;;;;;;;23.85;11.40;;;;;;;;;;5072613;28;20051;-64
2023/06/06 12:01:04;;;;;;;;;;;;;;;;;;5073215;28;20040;-63
2023/06/06 12:03:34;;;;;;;23.88;12.18;;;;;;;;;;4987634;28;20295;-63
2023/06/06 12:06:06;;;;;;;20.98;11.50;;;;;;;;;;5004197;28;20045;-63
2023/06/06 12:08:38;;;;;;;23.02;11.30;;;;;;;;;;5020410;28;20056;-64
2023/06/06 12:11:22;;;;;;;22.90;10.43;;;;;;;;;;5072366;28;20059;-63
2023/06/06 12:13:54;;;;;;;19.33;10.18;;;;;;;;;;5072267;28;20044;-63
2023/06/06 12:16:27;;;;;;;18.13;9.15;;;;;;;;;;5036923;28;20087;-61
2023/06/06 12:18:58;;;;;;;18.88;10.32;;;;;;;;;;5037944;28;20059;-62
2023/06/06 12:21:44;;;;;;;24.83;11.50;;;;;;;;;;5072110;28;20049;-64
2023/06/06 12:24:18;;;;;;;23.90;10.50;;;;;;;;;;5020316;28;20066;-63
2023/06/06 12:26:58;;;;;;;20.73;10.35;;;;;;;;;;5036047;28;20044;-64
2023/06/06 12:29:35;;;;;;;20.60;10.20;;;;;;;;;;5037502;28;20060;-63
2023/06/06 12:32:18;;;;;;;19.92;10.13;;;;;;;;;;5037131;28;20057;-63
2023/06/06 12:35:01;;;;;;;17.17;9.40;;;;;;;;;;5072111;28;20048;-64
2023/06/06 12:37:45;;;;;;;19.48;9.75;;;;;;;;;;5053390;28;20056;-63
2023/06/06 12:40:18;;;;;;;18.35;7.78;;;;;;;;;;5004448;28;20061;-63
2023/06/06 12:42:58;;;;;;;13.85;8.18;;;;;;;;;;5005709;28;20056;-66
2023/06/06 12:45:29;;;;;;;15.98;8.10;;;;;;;;;;5091438;28;20036;-64
2023/06/06 12:47:59;;;;;;;13.75;7.93;;;;;;;;;;5091279;28;20048;-63
2023/06/06 12:50:30;;;;;;;17.92;8.75;;;;;;;;;;5055706;28;20055;-63
2023/06/06 12:53:02;;;;;;;11.05;5.40;;;;;;;;;;5039546;28;20526;-63
2023/06/06 12:55:32;;;;;;;12.80;5.90;;;;;;;;;;5048453;28;20540;-63
2023/06/06 12:58:03;;;;;;;10.48;5.50;;;;;;;;;;5048759;28;20060;-64
2023/06/06 13:00:33;;;;;;;17.35;10.52;;;;;;;;;;5048859;28;20053;-64
2023/06/06 13:03:05;;;;;;;8.25;4.25;;;;;;;;;;5015907;28;20424;-65
2023/06/06 13:05:35;;;;;;;6.43;3.28;;;;;;;;;;5048598;28;20611;-64
2023/06/06 13:08:06;;;;;;;7.65;3.78;;;;;;;;;;5048623;28;20061;-64
2023/06/06 13:10:37;;;;;;;6.28;2.78;;;;;;;;;;5048943;28;20045;-63
2023/06/06 13:13:07;;;;;;;6.85;3.45;;;;;;;;;;5048562;28;20736;-63
2023/06/06 13:15:38;;;;;;;8.98;3.65;;;;;;;;;;4982775;28;20099;-64
2023/06/06 13:18:08;;;;;;;6.40;3.38;;;;;;;;;;5016714;28;20056;-63
2023/06/06 13:20:40;;;;;;;6.78;3.03;;;;;;;;;;5048624;28;20774;-63
2023/06/06 13:23:10;;;;;;;5.93;2.97;;;;;;;;;;5048352;28;20080;-63
2023/06/06 13:25:40;;;;;;;5.72;2.90;;;;;;;;;;5014780;28;20056;-64
2023/06/06 13:28:11;;;;;;;7.82;3.15;;;;;;;;;;5048317;28;20044;-65
2023/06/06 13:30:41;;;;;;;4.93;3.00;;;;;;;;;;5048399;28;20052;-64
2023/06/06 13:33:12;;;;;;;6.43;3.53;;;;;;;;;;5045116;28;20055;-63
2023/06/06 13:35:42;;;;;;;9.10;2.95;;;;;;;;;;5071993;28;20059;-64
2023/06/06 13:38:18;;;;;;;8.45;3.15;;;;;;;;;;5091014;28;20483;-64
2023/06/06 13:40:48;;;;;;;8.02;3.33;;;;;;;;;;5048310;28;20060;-63
2023/06/06 13:43:19;;;;;;;5.95;3.15;;;;;;;;;;5036559;28;20545;-64
2023/06/06 13:45:49;;;;;;;7.30;3.08;;;;;;;;;;4995547;28;20061;-62
2023/06/06 13:48:20;;;;;;;6.68;3.38;;;;;;;;;;5028202;28;20061;-64
2023/06/06 13:50:50;;;;;;;7.35;3.25;;;;;;;;;;5027976;28;20064;-61
2023/06/06 13:53:22;;;;;;;4.22;2.25;;;;;;;;;;4996552;28;20457;-63
2023/06/06 13:55:53;;;;;;;5.32;2.70;;;;;;;;;;4979212;28;20065;-64
2023/06/06 13:58:23;;;;;;;6.07;3.28;;;;;;;;;;4972675;28;20058;-62
2023/06/06 14:00:54;;;;;;;6.00;3.08;;;;;;;;;;4988629;28;20062;-63
2023/06/06 14:03:30;;;;;;;7.20;2.85;;;;;;;;;;4972339;28;20054;-64
2023/06/06 14:06:01;;;;;;;5.72;3.38;;;;;;;;;;5005188;28;20065;-63
2023/06/06 14:08:31;;;;;;;6.55;3.35;;;;;;;;;;4988050;28;20053;-63
2023/06/06 14:11:01;;;;;;;7.07;3.95;;;;;;;;;;4972398;28;20058;-63
2023/06/06 14:13:31;;;;;;;7.20;3.45;;;;;;;;;;4972406;28;20136;-63
2023/06/06 14:16:02;;;;;;;6.28;3.28;;;;;;;;;;5004780;28;20058;-63
2023/06/06 14:18:32;;;;;;;6.07;3.70;;;;;;;;;;5004206;28;20065;-64
2023/06/06 14:23:51;;;;;;;5.35;3.25;;;;;;;;;;5008387;28;20042;-64
2023/06/06 14:26:22;;;;;;;5.63;2.92;;;;;;;;;;5008612;28;20210;-63
2023/06/06 14:28:52;;;;;;;8.18;4.05;;;;;;;;;;5026074;28;20065;-63
2023/06/06 14:31:22;;;;;;;5.60;2.95;;;;;;;;;;4979335;28;20053;-63
2023/06/06 14:33:53;;;;;;;5.43;3.22;;;;;;;;;;4996058;28;20053;-63
2023/06/06 14:36:23;;;;;;;5.28;3.25;;;;;;;;;;5015805;28;20643;-64
2023/06/06 14:38:53;;;;;;;7.30;3.10;;;;;;;;;;4985784;28;20056;-63
2023/06/06 14:41:24;;;;;;;7.00;3.50;;;;;;;;;;5049628;28;20063;-62
2023/06/06 14:44:15;;;;;;;7.63;3.10;;;;;;;;;;5050857;28;20152;-62
2023/06/06 14:46:45;;;;;;;7.82;3.97;;;;;;;;;;4994609;28;20061;-64
2023/06/06 14:49:15;;;;;;;6.03;3.08;;;;;;;;;;4961777;28;20095;-62
2023/06/06 14:51:45;;;;;;;5.90;2.92;;;;;;;;;;4978255;28;20158;-62
2023/06/06 14:54:15;;;;;;;6.97;3.10;;;;;;;;;;5011210;28;20061;-63
2023/06/06 14:56:45;;;;;;;5.57;2.95;;;;;;;;;;5010873;28;20056;-63
2023/06/06 14:59:17;;;;;;;6.10;3.30;;;;;;;;;;5010918;28;20061;-64
2023/06/06 15:01:47;;;;;;;6.50;3.03;;;;;;;;;;4990391;28;20072;-62
2023/06/06 15:04:18;;;;;;;5.20;2.92;;;;;;;;;;4981725;28;20053;-62